Time;durP1;ratioP1;P1;durP2;ratioP2;P2;SDS_P1;SDS_P2;PMS_P1;PMS_P2;Temp;Humidity;BMP_temperature;BMP_pressure;BME280_temperature;BME280_humidity;BME280_pressure;Samples;Min_cycle;Max_cycle;Signal;HPM_P1;HPM_P2
2023/04/14 00:01:34;;;;;;;8.27;3.80;;;;;;;3.60;100.00;100848.13;5010905;28;20029;-71
2023/04/14 00:03:59;;;;;;;7.45;3.33;;;;;;;3.56;100.00;100848.94;5009902;28;20041;-71
2023/04/14 00:06:26;;;;;;;12.93;3.60;;;;;;;3.51;100.00;100856.66;5007979;28;20046;-71
2023/04/14 00:08:51;;;;;;;13.13;4.40;;;;;;;3.43;100.00;100841.19;5010143;28;20029;-71
2023/04/14 00:11:16;;;;;;;9.13;4.07;;;;;;;3.39;100.00;100847.13;5010354;28;20385;-71
2023/04/14 00:13:42;;;;;;;10.55;4.18;;;;;;;3.39;100.00;100849.72;5010454;28;20018;-71
2023/04/14 00:16:07;;;;;;;9.73;4.43;;;;;;;3.37;100.00;100848.88;5005640;28;20477;-71
2023/04/14 00:18:32;;;;;;;11.68;5.18;;;;;;;3.33;100.00;100841.94;5010584;28;20022;-71
2023/04/14 00:20:58;;;;;;;7.65;3.97;;;;;;;3.31;100.00;100843.66;5005638;28;20099;-71
2023/04/14 00:23:23;;;;;;;8.45;4.72;;;;;;;3.28;100.00;100844.50;4987772;28;20026;-71
2023/04/14 00:25:51;;;;;;;12.60;4.80;;;;;;;3.23;100.00;100855.63;4990008;28;20027;-71
2023/04/14 00:28:16;;;;;;;12.02;4.28;;;;;;;3.23;100.00;100860.78;4991042;28;20033;-71
2023/04/14 00:30:41;;;;;;;9.00;4.38;;;;;;;3.23;100.00;100851.34;4989996;28;20018;-71
2023/04/14 00:33:07;;;;;;;8.23;3.83;;;;;;;3.22;100.00;100854.78;4991366;28;20385;-71
2023/04/14 00:35:32;;;;;;;9.20;4.00;;;;;;;3.18;100.00;100847.88;4990678;28;20033;-71
2023/04/14 00:37:57;;;;;;;12.77;4.18;;;;;;;3.23;100.00;100855.63;4989903;28;20046;-71
2023/04/14 00:40:22;;;;;;;11.63;4.40;;;;;;;3.17;100.00;100856.47;4990620;28;20373;-71
2023/04/14 00:42:48;;;;;;;9.73;3.80;;;;;;;3.18;100.00;100859.91;4990461;28;20476;-71
2023/04/14 00:45:13;;;;;;;7.90;3.60;;;;;;;3.17;100.00;100860.72;4989658;28;20030;-71
2023/04/14 00:47:41;;;;;;;12.85;4.22;;;;;;;3.14;100.00;100859.03;4990292;28;20458;-71
2023/04/14 00:50:08;;;;;;;9.75;4.05;;;;;;;3.11;100.00;100861.56;4989836;28;20079;-71
2023/04/14 00:52:35;;;;;;;9.90;4.63;;;;;;;2.98;100.00;100855.47;4987154;28;20128;-71
2023/04/14 00:55:03;;;;;;;12.45;4.47;;;;;;;2.97;100.00;100866.59;4989726;28;20049;-71
2023/04/14 00:57:29;;;;;;;10.88;4.20;;;;;;;2.90;100.00;100867.41;4988553;28;20035;-71
2023/04/14 00:59:56;;;;;;;8.23;4.30;;;;;;;2.90;100.00;100869.13;4987749;28;20029;-71
2023/04/14 01:02:22;;;;;;;11.02;4.35;;;;;;;2.83;100.00;100857.03;4985600;28;20070;-71
2023/04/14 01:04:48;;;;;;;14.07;4.60;;;;;;;2.92;100.00;100872.59;4988153;28;20058;-71
2023/04/14 01:07:13;;;;;;;10.30;4.63;;;;;;;2.89;100.00;100870.84;4987874;28;20026;-71
2023/04/14 01:09:39;;;;;;;8.32;4.40;;;;;;;2.91;100.00;100882.03;4990029;28;20556;-71
2023/04/14 01:12:25;;;;;;;9.00;4.82;;;;;;;2.89;100.00;100882.84;4990408;28;20035;-71
2023/04/14 01:15:03;;;;;;;13.20;5.45;;;;;;;2.77;100.00;100876.72;4977726;28;20056;-71
2023/04/14 01:17:48;;;;;;;11.25;5.00;;;;;;;2.77;100.00;100879.31;4990084;28;20023;-71
2023/04/14 01:20:35;;;;;;;13.40;5.72;;;;;;;2.77;100.00;100881.88;4989353;28;20508;-72
2023/04/14 01:23:10;;;;;;;12.35;6.35;;;;;;;2.61;100.00;100850.84;4990393;28;20025;-71
2023/04/14 01:25:54;;;;;;;13.40;5.65;;;;;;;2.77;100.00;100875.88;4990120;28;20035;-71
2023/04/14 01:28:38;;;;;;;;;;;;;;;2.77;100.00;100881.88;4976557;28;20485;-71
2023/04/14 01:31:25;;;;;;;12.67;5.33;;;;;;;2.65;100.00;100873.19;4989956;28;20013;-71
2023/04/14 01:34:05;;;;;;;9.65;5.40;;;;;;;2.52;100.00;100867.94;4990372;28;20027;-71
2023/04/14 01:36:41;;;;;;;12.20;5.75;;;;;;;2.52;100.00;100869.66;4993486;28;20093;-71
2023/04/14 01:39:13;;;;;;;11.25;5.78;;;;;;;2.50;100.00;100879.91;4994153;28;20022;-71
2023/04/14 01:41:46;;;;;;;12.70;5.78;;;;;;;2.52;100.00;100885.94;4992434;28;20092;-72
2023/04/14 01:44:13;;;;;;;;;;;;;;;2.51;100.00;100886.78;4993938;28;20034;-71
2023/04/14 01:46:40;;;;;;;9.82;6.07;;;;;;;2.45;100.00;100880.72;4992798;28;19921;-71
2023/04/14 01:49:05;;;;;;;13.02;5.68;;;;;;;2.49;100.00;100887.63;4992173;28;20035;-71
2023/04/14 01:51:32;;;;;;;13.65;6.25;;;;;;;2.44;100.00;100892.72;4993222;28;20014;-71
2023/04/14 01:54:00;;;;;;;12.02;5.22;;;;;;;2.38;100.00;100895.22;4992657;28;20051;-71
2023/04/14 01:56:26;;;;;;;11.65;5.50;;;;;;;2.34;100.00;100894.31;4993270;28;20034;-71
2023/04/14 01:58:55;;;;;;;12.35;5.82;;;;;;;2.29;100.00;100888.28;4992724;28;20035;-71
2023/04/14 02:01:21;;;;;;;11.98;5.47;;;;;;;2.36;100.00;100904.66;4992951;28;20057;-71
2023/04/14 02:03:48;;;;;;;10.05;5.38;;;;;;;2.34;100.00;100903.75;4991964;28;20022;-71
2023/04/14 02:06:15;;;;;;;13.20;5.53;;;;;;;2.28;100.00;100885.69;4993089;28;20048;-71
2023/04/14 02:08:41;;;;;;;10.65;5.18;;;;;;;2.30;100.00;100894.28;4988329;28;20065;-71
2023/04/14 02:11:08;;;;;;;14.13;5.65;;;;;;;2.20;100.00;100888.16;4992730;28;20046;-71
2023/04/14 02:13:34;;;;;;;11.38;4.70;;;;;;;2.22;100.00;100893.31;4992234;28;20036;-71
2023/04/14 02:16:01;;;;;;;9.10;4.82;;;;;;;2.13;100.00;100901.81;4990683;28;20033;-71
2023/04/14 02:18:28;;;;;;;12.55;4.65;;;;;;;2.16;100.00;100911.25;4989936;28;20030;-71
2023/04/14 02:20:56;;;;;;;9.70;4.50;;;;;;;2.11;100.00;100904.34;4990689;28;20037;-71
2023/04/14 02:23:22;;;;;;;10.55;4.50;;;;;;;2.08;100.00;100912.03;4992206;28;20034;-71
2023/04/14 02:25:59;;;;;;;10.85;4.28;;;;;;;2.07;100.00;100906.88;4991897;28;20079;-71
2023/04/14 02:28:28;;;;;;;12.90;4.68;;;;;;;2.05;100.00;100917.13;4992877;28;20064;-71
2023/04/14 02:30:57;;;;;;;13.98;4.60;;;;;;;2.06;100.00;100908.59;4991808;28;20033;-71
2023/04/14 02:33:28;;;;;;;14.77;4.60;;;;;;;2.05;100.00;100903.41;4992694;28;20034;-71
2023/04/14 02:36:09;;;;;;;9.40;4.00;;;;;;;2.05;100.00;100916.28;4992244;28;20040;-71
2023/04/14 02:38:59;;;;;;;10.48;4.53;;;;;;;2.02;100.00;100914.53;4991870;28;20027;-71
2023/04/14 02:41:27;;;;;;;9.25;4.70;;;;;;;2.00;100.00;100910.22;5013938;28;20080;-71
2023/04/14 02:44:06;;;;;;;8.48;4.13;;;;;;;1.96;100.00;100916.16;5010942;28;20022;-71
2023/04/14 02:46:36;;;;;;;8.02;4.20;;;;;;;1.90;100.00;100928.91;5010871;28;20461;-71
2023/04/14 02:49:04;;;;;;;9.57;4.40;;;;;;;1.84;100.00;100927.16;4998243;28;20374;-71
2023/04/14 02:51:33;;;;;;;10.10;4.35;;;;;;;1.84;100.00;100930.59;5011387;28;20026;-71
2023/04/14 02:53:58;;;;;;;10.52;4.10;;;;;;;1.80;100.00;100922.81;5011090;28;20398;-71
2023/04/14 02:56:24;;;;;;;13.25;4.50;;;;;;;1.75;100.00;100916.75;5011922;28;20029;-71
2023/04/14 02:58:51;;;;;;;11.25;4.32;;;;;;;1.78;100.00;100925.34;5010843;28;20029;-71
2023/04/14 03:01:18;;;;;;;9.60;4.07;;;;;;;1.77;100.00;100917.63;5011456;28;20038;-71
2023/04/14 03:03:43;;;;;;;10.05;4.30;;;;;;;1.81;100.00;100930.53;5011520;28;20022;-71
2023/04/14 03:06:10;;;;;;;8.93;4.57;;;;;;;1.81;100.00;100927.09;5008601;28;20181;-71
2023/04/14 03:08:36;;;;;;;15.07;4.45;;;;;;;1.79;100.00;100923.63;5011725;28;20077;-71
2023/04/14 03:11:09;;;;;;;10.70;4.65;;;;;;;1.80;100.00;100933.09;5011218;28;20037;-71
2023/04/14 03:13:37;;;;;;;11.63;4.40;;;;;;;1.76;100.00;100936.44;5008951;28;20473;-71
2023/04/14 03:16:03;;;;;;;11.75;4.72;;;;;;;1.68;100.00;100925.22;5005245;28;20026;-71
2023/04/14 03:18:31;;;;;;;13.38;4.82;;;;;;;1.69;100.00;100934.66;5011405;28;20102;-71
2023/04/14 03:20:59;;;;;;;11.13;4.40;;;;;;;1.63;100.00;100920.00;5009372;28;20492;-71
2023/04/14 03:23:25;;;;;;;14.02;4.45;;;;;;;1.67;100.00;100932.06;5010352;28;20381;-71
2023/04/14 03:25:52;;;;;;;11.02;4.32;;;;;;;1.68;100.00;100940.63;5010317;28;20041;-71
2023/04/14 03:28:22;;;;;;;10.65;4.97;;;;;;;1.62;100.00;100934.56;5010987;28;20386;-71
2023/04/14 03:30:50;;;;;;;7.57;4.07;;;;;;;1.60;100.00;100925.97;4999552;28;20023;-71
2023/04/14 03:33:19;;;;;;;13.20;4.40;;;;;;;1.59;100.00;100928.50;4990884;28;20101;-71
2023/04/14 03:35:45;;;;;;;8.25;4.70;;;;;;;1.55;100.00;100935.31;4991531;28;20105;-71
2023/04/14 03:38:13;;;;;;;14.40;4.40;;;;;;;1.56;100.00;100937.03;4990908;28;20018;-71
2023/04/14 03:40:43;;;;;;;9.88;4.47;;;;;;;1.52;100.00;100948.09;4988392;28;20034;-71
2023/04/14 03:43:11;;;;;;;11.77;4.45;;;;;;;1.51;100.00;100942.97;4991177;28;20050;-71
2023/04/14 03:45:38;;;;;;;15.32;4.97;;;;;;;1.49;100.00;100931.78;4990996;28;20026;-71
2023/04/14 03:48:06;;;;;;;14.10;4.63;;;;;;;1.49;100.00;100935.22;4990249;28;20087;-71
2023/04/14 03:50:40;;;;;;;10.10;4.45;;;;;;;1.50;100.00;100939.50;4991433;28;20033;-71
2023/04/14 03:53:07;;;;;;;;;;;;;;;1.50;100.00;100933.50;4991721;28;20091;-71
2023/04/14 03:55:35;;;;;;;9.70;4.50;;;;;;;1.47;100.00;100930.88;4996711;28;19914;-71
2023/04/14 03:58:01;;;;;;;12.60;5.50;;;;;;;1.47;100.00;100941.16;4998589;28;20474;-71
2023/04/14 04:00:28;;;;;;;14.07;5.35;;;;;;;1.48;100.00;100941.19;4990989;28;20031;-71
2023/04/14 04:02:54;;;;;;;13.32;5.10;;;;;;;1.47;100.00;100944.63;4990176;28;20038;-71
2023/04/14 04:05:21;;;;;;;13.02;5.50;;;;;;;1.45;100.00;100951.44;4990799;28;20423;-71
2023/04/14 04:07:48;;;;;;;12.73;4.63;;;;;;;1.42;100.00;100951.38;4991150;28;20034;-71
2023/04/14 04:10:15;;;;;;;12.40;5.63;;;;;;;1.39;100.00;100952.19;4990355;28;20071;-71
2023/04/14 04:12:42;;;;;;;12.82;5.13;;;;;;;1.31;100.00;100934.94;4997494;28;20444;-71
2023/04/14 04:15:08;;;;;;;10.45;5.50;;;;;;;1.37;100.00;100943.63;4997387;28;20022;-71
2023/04/14 04:17:34;;;;;;;8.35;4.82;;;;;;;1.36;100.00;100946.16;4992203;28;20399;-71
2023/04/14 04:20:05;;;;;;;13.70;5.22;;;;;;;1.35;100.00;100942.72;4990838;28;20031;-71
2023/04/14 04:22:35;;;;;;;11.43;5.15;;;;;;;1.32;100.00;100939.25;4990310;28;20102;-71
2023/04/14 04:25:01;;;;;;;11.00;5.20;;;;;;;1.31;100.00;100940.94;4990488;28;20050;-71
2023/04/14 04:27:27;;;;;;;13.15;5.18;;;;;;;1.29;100.00;100937.47;4990565;28;20470;-71
2023/04/14 04:29:52;;;;;;;10.25;5.10;;;;;;;1.29;100.00;100947.75;4990309;28;20018;-71
2023/04/14 04:32:18;;;;;;;10.13;4.40;;;;;;;1.29;100.00;100949.47;4990993;28;20025;-71
2023/04/14 04:34:46;;;;;;;10.82;5.18;;;;;;;1.21;100.00;100940.75;4990472;28;20019;-71
2023/04/14 04:37:12;;;;;;;10.85;5.28;;;;;;;1.31;100.00;100956.34;4989933;28;20042;-71
2023/04/14 04:39:41;;;;;;;14.13;4.93;;;;;;;1.39;100.00;100961.59;4990438;28;20461;-71
2023/04/14 04:42:06;;;;;;;13.40;5.18;;;;;;;1.42;100.00;100959.09;4990484;28;20026;-71
2023/04/14 04:44:33;;;;;;;10.85;4.90;;;;;;;1.44;100.00;100959.09;4990102;28;20042;-71
2023/04/14 04:46:59;;;;;;;9.70;5.00;;;;;;;1.43;100.00;100953.09;4990799;28;20030;-71
2023/04/14 04:49:25;;;;;;;9.80;4.75;;;;;;;1.42;100.00;100955.66;4988775;28;20026;-71
2023/04/14 04:51:50;;;;;;;12.00;4.45;;;;;;;1.31;100.00;100945.22;4987530;28;20529;-71
2023/04/14 04:54:16;;;;;;;14.38;5.30;;;;;;;1.37;100.00;100948.75;4990075;28;20096;-71
2023/04/14 04:56:41;;;;;;;11.38;4.60;;;;;;;1.36;100.00;100948.72;4989913;28;20121;-71
2023/04/14 04:59:07;;;;;;;11.73;5.03;;;;;;;1.36;100.00;100951.28;4989794;28;20014;-71
2023/04/14 05:01:33;;;;;;;12.38;5.05;;;;;;;1.37;100.00;100950.44;4990459;28;20030;-71
2023/04/14 05:03:58;;;;;;;10.45;4.93;;;;;;;1.30;100.00;100938.34;4990604;28;20117;-71
2023/04/14 05:06:23;;;;;;;14.70;5.20;;;;;;;1.41;100.00;100954.81;4989633;28;20369;-71
2023/04/14 05:08:53;;;;;;;13.77;5.07;;;;;;;1.39;100.00;100953.91;4989428;28;20036;-71
2023/04/14 05:11:18;;;;;;;20.98;5.40;;;;;;;1.39;100.00;100946.19;4989718;28;20022;-71
2023/04/14 05:13:43;;;;;;;11.73;5.55;;;;;;;1.39;100.00;100952.19;4989843;28;20470;-71
2023/04/14 05:16:10;;;;;;;10.88;4.95;;;;;;;1.45;100.00;100954.00;4990222;28;20022;-71
2023/04/14 05:18:36;;;;;;;15.18;5.15;;;;;;;1.50;100.00;100949.78;4989376;28;20520;-71
2023/04/14 05:21:09;;;;;;;13.27;5.32;;;;;;;1.56;100.00;100943.88;4990032;28;20022;-71
2023/04/14 05:23:36;;;;;;;;;;;;;;;1.63;100.00;100955.97;4990923;28;20080;-71
2023/04/14 05:26:03;;;;;;;12.02;4.72;;;;;;;1.73;100.00;100946.69;4988751;28;19971;-71
2023/04/14 05:28:28;;;;;;;14.35;5.45;;;;;;;1.83;100.00;100951.13;4990180;28;20035;-71
2023/04/14 05:30:54;;;;;;;22.17;6.05;;;;;;;1.96;100.00;100950.47;4989636;28;20373;-71
2023/04/14 05:33:19;;;;;;;14.07;5.53;;;;;;;2.07;100.00;100954.03;4987597;28;20034;-71
2023/04/14 05:35:45;;;;;;;19.90;6.07;;;;;;;2.23;100.00;100943.94;4989586;28;20034;-71
2023/04/14 05:38:11;;;;;;;12.00;5.18;;;;;;;2.40;100.00;100949.28;4990352;28;20023;-71
2023/04/14 05:40:37;;;;;;;12.70;5.00;;;;;;;2.60;100.00;100941.78;4988919;28;20023;-71
2023/04/14 05:43:03;;;;;;;15.30;5.82;;;;;;;2.72;100.00;100944.50;4990000;28;20050;-71
2023/04/14 05:45:28;;;;;;;12.85;4.72;;;;;;;2.76;100.00;100925.66;4990014;28;20065;-71
2023/04/14 05:47:53;;;;;;;13.55;5.72;;;;;;;2.83;100.00;100932.56;4988707;28;20114;-71
2023/04/14 05:50:19;;;;;;;12.15;4.95;;;;;;;3.00;100.00;100943.88;4990000;28;20105;-71
2023/04/14 05:52:44;;;;;;;10.50;4.90;;;;;;;3.07;100.00;100937.06;4989374;28;20022;-71
2023/04/14 05:55:10;;;;;;;8.10;5.10;;;;;;;3.11;100.00;100935.41;4989003;28;20038;-71
2023/04/14 05:57:35;;;;;;;14.05;5.25;;;;;;;3.16;100.00;100938.88;4989953;28;20083;-71
2023/04/14 06:00:05;;;;;;;11.10;5.00;;;;;;;3.24;100.00;100944.97;4989342;28;20084;-71
2023/04/14 06:02:30;;;;;;;11.00;4.70;;;;;;;3.34;100.00;100943.34;4989021;28;20022;-71
2023/04/14 06:04:56;;;;;;;10.93;4.40;;;;;;;3.45;100.00;100944.25;4989132;28;20092;-70
2023/04/14 06:07:21;;;;;;;12.88;4.75;;;;;;;3.59;100.00;100945.22;4989616;28;20042;-71
2023/04/14 06:09:46;;;;;;;11.65;4.65;;;;;;;3.69;100.00;100949.56;4988625;28;20026;-71
2023/04/14 06:12:12;;;;;;;16.48;5.03;;;;;;;3.80;100.00;100952.25;4990013;28;20034;-71
2023/04/14 06:14:38;;;;;;;9.52;4.45;;;;;;;3.88;100.00;100942.81;4988794;28;20434;-71
2023/04/14 06:17:03;;;;;;;11.25;4.70;;;;;;;3.93;100.00;100938.56;4986234;28;20034;-70
2023/04/14 06:19:29;;;;;;;7.88;4.45;;;;;;;4.05;100.00;100947.19;4989538;28;20030;-71
2023/04/14 06:21:54;;;;;;;9.13;4.60;;;;;;;4.09;100.00;100939.50;4990779;28;20022;-71
2023/04/14 06:24:19;;;;;;;12.18;4.93;;;;;;;4.14;100.00;100926.59;4992776;28;20026;-71
2023/04/14 06:26:45;;;;;;;13.02;4.78;;;;;;;4.23;100.00;100936.97;4992205;28;20071;-71
2023/04/14 06:29:10;;;;;;;9.93;4.55;;;;;;;4.32;100.00;100934.44;4992520;28;20073;-71
2023/04/14 06:31:36;;;;;;;13.02;5.70;;;;;;;4.39;100.00;100928.44;4992786;28;20458;-71
2023/04/14 06:34:01;;;;;;;9.82;4.35;;;;;;;4.44;100.00;100931.88;4992206;28;20022;-71
2023/04/14 06:36:27;;;;;;;11.40;4.43;;;;;;;4.44;100.00;100913.78;4988527;28;20038;-71
2023/04/14 06:38:53;;;;;;;10.98;4.13;;;;;;;4.53;100.00;100919.84;4989025;28;20424;-71
2023/04/14 06:41:18;;;;;;;10.43;4.28;;;;;;;4.61;100.00;100918.13;4990898;28;20026;-71
2023/04/14 06:43:43;;;;;;;10.38;5.03;;;;;;;4.70;100.00;100920.75;4991520;28;20033;-71
2023/04/14 06:46:08;;;;;;;10.07;4.43;;;;;;;4.77;100.00;100917.31;4991478;28;20030;-71
2023/04/14 06:48:34;;;;;;;12.65;4.68;;;;;;;4.84;100.00;100910.44;4991279;28;20027;-70
2023/04/14 06:50:59;;;;;;;14.18;4.47;;;;;;;4.89;100.00;100912.16;5017854;28;20023;-71
2023/04/14 06:53:25;;;;;;;11.48;4.10;;;;;;;4.98;100.00;100907.88;4988799;28;20054;-71
2023/04/14 06:55:57;;;;;;;7.40;4.03;;;;;;;5.07;100.00;100911.34;4994732;28;20121;-71
2023/04/14 06:58:23;;;;;;;14.10;4.70;;;;;;;5.14;100.00;100913.06;4992292;28;20028;-71
2023/04/14 07:01:02;;;;;;;9.68;4.55;;;;;;;5.25;100.00;100918.22;4992715;28;20037;-71
2023/04/14 07:03:31;;;;;;;8.95;4.22;;;;;;;5.38;100.00;100913.91;4996324;28;20021;-71
2023/04/14 07:06:04;;;;;;;9.57;4.15;;;;;;;5.49;100.00;100900.94;4991669;28;20056;-71
2023/04/14 07:08:31;;;;;;;12.35;4.57;;;;;;;5.58;100.00;100909.53;4991997;28;20035;-71
2023/04/14 07:11:01;;;;;;;8.35;4.40;;;;;;;5.69;100.00;100906.97;4988510;28;20377;-71
2023/04/14 07:13:27;;;;;;;9.52;4.22;;;;;;;5.79;100.00;100905.22;4988744;28;20038;-71
2023/04/14 07:15:53;;;;;;;9.32;4.05;;;;;;;5.89;100.00;100900.88;4990921;28;20027;-71
2023/04/14 07:18:19;;;;;;;10.77;3.67;;;;;;;5.95;100.00;100891.41;4991265;28;20033;-71
2023/04/14 07:20:44;;;;;;;9.85;3.92;;;;;;;6.03;100.00;100884.44;4991524;28;20046;-71
2023/04/14 07:23:10;;;;;;;5.90;3.10;;;;;;;6.19;100.00;100892.16;4989012;28;20025;-71
2023/04/14 07:25:35;;;;;;;8.13;3.30;;;;;;;6.29;100.00;100892.09;4993005;28;20381;-71
2023/04/14 07:28:01;;;;;;;8.25;3.22;;;;;;;6.42;100.00;100887.72;5036720;28;20123;-71
2023/04/14 07:30:27;;;;;;;7.68;3.70;;;;;;;6.49;100.00;100885.94;5027863;28;20029;-71
2023/04/14 07:32:52;;;;;;;12.60;4.15;;;;;;;6.55;100.00;100872.97;4989487;28;20109;-71
2023/04/14 07:35:17;;;;;;;11.85;3.72;;;;;;;6.64;100.00;100880.66;5022038;28;20034;-71
2023/04/14 07:37:43;;;;;;;8.07;4.22;;;;;;;6.71;100.00;100871.97;4991309;28;20069;-71
2023/04/14 07:40:09;;;;;;;7.63;3.13;;;;;;;6.81;100.00;100880.56;4995485;28;20053;-71
2023/04/14 07:42:35;;;;;;;8.35;3.50;;;;;;;6.87;100.00;100877.06;4991794;28;20058;-71
2023/04/14 07:45:01;;;;;;;6.95;3.63;;;;;;;6.95;100.00;100883.88;4988684;28;20072;-71
2023/04/14 07:47:27;;;;;;;9.68;3.72;;;;;;;6.99;100.00;100862.25;4989035;28;20038;-71
2023/04/14 07:49:53;;;;;;;9.10;3.10;;;;;;;7.09;99.08;100873.41;4990961;28;20030;-71
2023/04/14 07:52:18;;;;;;;8.13;3.80;;;;;;;7.15;99.41;100868.16;4991043;28;20022;-71
2023/04/14 07:54:44;;;;;;;9.75;3.72;;;;;;;7.22;96.98;100867.22;4988807;28;20485;-71
2023/04/14 07:57:10;;;;;;;11.27;3.50;;;;;;;7.31;97.64;100876.66;4991172;28;20121;-71
2023/04/14 07:59:37;;;;;;;7.70;3.33;;;;;;;7.39;96.45;100871.38;4991303;28;20505;-71
2023/04/14 08:02:02;;;;;;;9.73;2.90;;;;;;;7.53;94.32;100866.94;4988999;28;20534;-71
2023/04/14 08:04:27;;;;;;;8.75;2.55;;;;;;;7.67;91.92;100872.84;4983699;28;20066;-71
2023/04/14 08:06:53;;;;;;;6.00;2.80;;;;;;;7.78;90.73;100867.50;4990503;28;20117;-71
2023/04/14 08:09:18;;;;;;;5.93;2.60;;;;;;;7.92;90.21;100878.59;4990471;28;20030;-71
2023/04/14 08:11:43;;;;;;;6.55;2.47;;;;;;;7.96;90.05;100856.06;4990792;28;20381;-71
2023/04/14 08:14:08;;;;;;;4.18;2.30;;;;;;;8.12;89.21;100867.97;4990515;28;20029;-71
2023/04/14 08:16:35;;;;;;;6.53;2.50;;;;;;;8.19;87.01;100872.19;4990582;28;20079;-71
2023/04/14 08:19:01;;;;;;;4.80;2.30;;;;;;;8.29;86.62;100875.53;4988428;28;20505;-71
2023/04/14 08:21:26;;;;;;;5.35;2.38;;;;;;;8.37;86.28;100867.63;4990316;28;20019;-71
2023/04/14 08:23:52;;;;;;;5.05;2.42;;;;;;;8.52;84.58;100862.25;4989754;28;20033;-71
2023/04/14 08:26:17;;;;;;;3.78;1.92;;;;;;;8.64;81.58;100863.81;5006263;28;20033;-71
2023/04/14 08:28:43;;;;;;;4.25;1.83;;;;;;;8.74;77.85;100868.00;4997446;28;20053;-72
2023/04/14 08:31:09;;;;;;;5.18;1.73;;;;;;;8.80;79.50;100867.06;4994898;28;20031;-71
2023/04/14 08:33:34;;;;;;;6.97;1.80;;;;;;;8.91;77.81;100872.94;5002939;28;20478;-71
2023/04/14 08:36:00;;;;;;;3.33;1.33;;;;;;;9.03;77.74;100864.09;4991888;28;20026;-71
2023/04/14 08:38:25;;;;;;;6.07;1.77;;;;;;;9.10;73.46;100860.50;5010412;28;20054;-71
2023/04/14 08:40:55;;;;;;;4.53;1.70;;;;;;;9.14;75.24;100859.53;5004234;28;20032;-71
2023/04/14 08:43:20;;;;;;;4.18;1.63;;;;;;;9.25;73.11;100862.81;4985361;28;20101;-71
2023/04/14 08:45:50;;;;;;;7.35;1.88;;;;;;;9.32;72.11;100872.25;4990122;28;20038;-71
2023/04/14 08:48:18;;;;;;;7.28;1.90;;;;;;;9.41;73.23;100860.78;5034666;28;20078;-71
2023/04/14 08:51:12;;;;;;;9.40;1.60;;;;;;;9.49;73.63;100853.72;4991571;28;20026;-72
2023/04/14 08:53:44;;;;;;;6.38;1.70;;;;;;;9.74;71.60;100858.44;4994279;28;20192;-71
2023/04/14 08:56:13;;;;;;;6.72;1.80;;;;;;;9.89;71.58;100857.28;4992497;28;20033;-72
2023/04/14 08:58:39;;;;;;;5.75;1.80;;;;;;;9.97;71.62;100856.25;5041971;28;20024;-73
2023/04/14 09:01:04;;;;;;;8.20;1.88;;;;;;;10.05;67.95;100862.13;4998259;28;20421;-72
2023/04/14 09:03:30;;;;;;;8.48;1.77;;;;;;;10.11;72.16;100853.34;4990923;28;20034;-72
2023/04/14 09:05:56;;;;;;;8.48;2.10;;;;;;;10.28;70.23;100856.47;4998384;28;20029;-73
2023/04/14 09:08:22;;;;;;;8.20;2.10;;;;;;;10.39;69.03;100863.19;5001542;28;20036;-73
2023/04/14 09:10:49;;;;;;;3.40;1.75;;;;;;;10.45;67.71;100847.41;5008727;28;20076;-72
2023/04/14 09:13:16;;;;;;;5.15;1.75;;;;;;;10.57;69.64;100854.97;5004295;28;20030;-73
2023/04/14 09:15:41;;;;;;;8.27;2.20;;;;;;;10.62;71.28;100834.84;5000970;28;20034;-74
2023/04/14 09:18:08;;;;;;;3.47;1.70;;;;;;;10.86;68.49;100850.81;4989537;28;20027;-74
2023/04/14 09:20:34;;;;;;;6.00;1.80;;;;;;;11.07;65.89;100844.19;4992781;28;20031;-72
2023/04/14 09:22:59;;;;;;;4.30;1.90;;;;;;;11.33;67.69;100848.72;4994395;28;20033;-72
2023/04/14 09:25:25;;;;;;;3.88;1.50;;;;;;;11.44;63.61;100844.06;5008988;28;20041;-72
2023/04/14 09:27:50;;;;;;;7.95;2.17;;;;;;;11.44;62.80;100834.50;5009229;28;20018;-71
2023/04/14 09:30:19;;;;;;;5.78;1.90;;;;;;;11.28;61.70;100841.03;5002084;28;20022;-72
2023/04/14 09:32:44;;;;;;;7.78;1.80;;;;;;;11.14;62.60;100843.13;4989269;28;20106;-72
2023/04/14 09:35:13;;;;;;;4.57;1.98;;;;;;;11.36;62.63;100844.28;4990020;28;20113;-72
2023/04/14 09:37:43;;;;;;;5.55;1.80;;;;;;;11.47;59.75;100841.38;4989679;28;20019;-72
2023/04/14 09:40:10;;;;;;;7.82;1.98;;;;;;;11.42;60.71;100832.84;4989146;28;20023;-72
2023/04/14 09:42:40;;;;;;;5.55;2.20;;;;;;;11.56;63.13;100835.06;4990147;28;20019;-72
2023/04/14 09:45:07;;;;;;;5.32;1.70;;;;;;;11.89;62.22;100821.06;4989531;28;20030;-72
2023/04/14 09:47:32;;;;;;;6.85;1.83;;;;;;;11.81;57.01;100830.88;4989176;28;20095;-72
2023/04/14 09:49:59;;;;;;;8.43;2.10;;;;;;;11.58;57.91;100823.69;4989448;28;20485;-72
2023/04/14 09:52:39;;;;;;;6.88;2.20;;;;;;;11.75;57.77;100815.38;4989963;28;20026;-72
2023/04/14 09:55:11;;;;;;;5.00;2.00;;;;;;;12.06;57.00;100817.09;4990890;28;20039;-72
2023/04/14 09:57:37;;;;;;;5.57;1.60;;;;;;;12.29;58.06;100819.88;4993269;28;20035;-72
2023/04/14 10:00:17;;;;;;;6.88;1.80;;;;;;;12.35;56.04;100810.97;4992191;28;20485;-72
2023/04/14 10:02:56;;;;;;;4.72;1.85;;;;;;;12.28;54.28;100810.31;4992774;28;20088;-72
2023/04/14 10:05:26;;;;;;;6.78;1.75;;;;;;;12.25;54.69;100813.03;4992075;28;20481;-72
2023/04/14 10:07:51;;;;;;;5.68;1.83;;;;;;;12.08;53.62;100803.09;4999195;28;20033;-72
2023/04/14 10:10:16;;;;;;;5.70;1.90;;;;;;;12.28;56.68;100801.63;4992114;28;20042;-72
2023/04/14 10:12:43;;;;;;;6.50;1.83;;;;;;;12.68;55.23;100801.19;4990737;28;20027;-72
2023/04/14 10:15:09;;;;;;;4.07;1.90;;;;;;;13.18;52.31;100796.03;4989073;28;20035;-72
2023/04/14 10:17:36;;;;;;;6.78;1.70;;;;;;;13.48;51.71;100786.25;4992894;28;20473;-72
2023/04/14 10:20:03;;;;;;;6.25;2.20;;;;;;;13.88;50.97;100789.16;4992650;28;20405;-72
2023/04/14 10:22:29;;;;;;;7.30;2.17;;;;;;;14.02;49.51;100784.25;4991430;28;20022;-72
2023/04/14 10:24:58;;;;;;;8.18;2.22;;;;;;;13.96;50.03;100787.97;4991669;28;20042;-72
2023/04/14 10:27:26;;;;;;;3.58;1.85;;;;;;;13.87;50.57;100784.84;4990262;28;20113;-72
2023/04/14 10:29:52;;;;;;;5.82;1.90;;;;;;;13.59;49.68;100776.22;4989291;28;20079;-72
2023/04/14 10:32:18;;;;;;;3.72;1.55;;;;;;;13.62;49.69;100777.03;4991907;28;20026;-72
2023/04/14 10:34:58;;;;;;;8.35;1.75;;;;;;;13.96;52.13;100771.38;4991510;28;20092;-72
2023/04/14 10:37:24;;;;;;;6.30;2.00;;;;;;;13.92;50.47;100767.16;4996825;28;20401;-72
2023/04/14 10:39:55;;;;;;;4.95;1.58;;;;;;;13.86;51.24;100775.25;5010926;28;20022;-72
2023/04/14 10:42:20;;;;;;;3.17;1.73;;;;;;;13.70;49.84;100759.25;5011087;28;20490;-72
2023/04/14 10:45:02;;;;;;;5.43;1.90;;;;;;;13.54;51.64;100769.47;5011525;28;20113;-72
2023/04/14 10:47:27;;;;;;;7.20;1.90;;;;;;;13.61;50.17;100762.25;5011938;28;20026;-72
2023/04/14 10:49:55;;;;;;;5.07;2.00;;;;;;;13.64;49.77;100756.91;5008015;28;20026;-72
2023/04/14 10:52:21;;;;;;;5.72;1.92;;;;;;;13.51;50.45;100764.34;5011797;28;20032;-72
2023/04/14 10:55:01;;;;;;;4.82;1.70;;;;;;;13.66;52.61;100753.28;5011329;28;20046;-72
2023/04/14 10:57:28;;;;;;;5.25;1.55;;;;;;;14.27;49.38;100752.69;5011102;28;20037;-72
2023/04/14 10:59:55;;;;;;;4.80;1.77;;;;;;;14.80;46.00;100751.41;5011634;28;20443;-72
2023/04/14 11:02:31;;;;;;;6.32;1.67;;;;;;;14.69;44.91;100747.47;5011805;28;20036;-72
2023/04/14 11:05:01;;;;;;;8.80;1.90;;;;;;;14.31;46.85;100753.41;5010625;28;20018;-72
2023/04/14 11:07:27;;;;;;;3.47;1.35;;;;;;;14.03;45.54;100750.13;5010857;28;20037;-72
2023/04/14 11:09:58;;;;;;;5.25;1.80;;;;;;;14.21;49.30;100734.56;5011514;28;20033;-72
2023/04/14 11:12:26;;;;;;;3.92;1.40;;;;;;;14.58;46.76;100748.81;5010993;28;20384;-72
2023/04/14 11:15:00;;;;;;;2.58;1.60;;;;;;;14.57;45.74;100747.13;5011363;28;20484;-72
2023/04/14 11:17:29;;;;;;;5.63;1.80;;;;;;;14.47;44.63;100736.97;5010699;28;20034;-72
2023/04/14 11:19:56;;;;;;;6.03;1.80;;;;;;;14.86;46.34;100738.88;5011131;28;20354;-72
2023/04/14 11:22:39;;;;;;;5.38;1.80;;;;;;;14.96;46.23;100739.34;5011409;28;20018;-72
2023/04/14 11:25:05;;;;;;;6.35;1.92;;;;;;;14.73;43.77;100741.16;4985691;28;20079;-72
2023/04/14 11:27:31;;;;;;;5.00;1.42;;;;;;;14.55;46.33;100741.09;5011442;28;20105;-72